createdAt,value
2023-04-08T09:18:28.923Z,95286.03
2023-04-08T09:21:14.744Z,95280.91
2023-04-08T09:23:44.403Z,95284.06
2023-04-08T09:26:14.261Z,95289.16
2023-04-08T09:31:24.904Z,95273.56
2023-04-08T09:34:15.805Z,95268.16
2023-04-08T09:36:44.881Z,95255.59
2023-04-08T09:39:14.747Z,95269.69
2023-04-08T09:41:44.118Z,95269.38
2023-04-08T09:44:13.055Z,95263.78
2023-04-08T09:46:48.787Z,95252.44
2023-04-08T09:49:27.358Z,95258.56
2023-04-08T09:52:01.120Z,95257.34
2023-04-08T09:54:43.735Z,95257.41
2023-04-08T09:57:15.401Z,95250.56
2023-04-08T09:59:54.155Z,95250.97
2023-04-08T10:02:32.392Z,95241.72
2023-04-08T10:05:08.338Z,95240.44
2023-04-08T10:07:36.997Z,95229.50
2023-04-08T10:10:05.931Z,95238.50
2023-04-08T10:12:35.353Z,95230.13
2023-04-08T10:15:29.922Z,95235.63
2023-04-08T10:18:22.209Z,95224.31
2023-04-08T10:20:51.815Z,95224.59
2023-04-08T10:23:21.305Z,95218.38
2023-04-08T10:25:50.311Z,95224.09
2023-04-08T10:28:27.721Z,95228.28
2023-04-08T10:30:57.493Z,95214.66
2023-04-08T10:33:33.062Z,95233.00
2023-04-08T10:36:11.434Z,95226.50
2023-04-08T10:38:39.910Z,95166.50
2023-04-08T10:41:10.130Z,95228.09
2023-04-08T10:43:41.464Z,95217.47
2023-04-08T10:46:11.971Z,95213.38
2023-04-08T10:48:40.061Z,95219.38
2023-04-08T10:51:09.439Z,95217.56
2023-04-08T10:53:39.478Z,95205.06
2023-04-08T10:56:09.412Z,95219.69
2023-04-08T10:58:38.479Z,95210.72
2023-04-08T11:01:08.389Z,95153.75
2023-04-08T11:03:38.432Z,95195.53
2023-04-08T11:06:07.591Z,95196.25
2023-04-08T11:08:38.734Z,95186.16
2023-04-08T11:11:11.197Z,95183.63
2023-04-08T11:13:52.143Z,95180.00
2023-04-08T11:16:22.803Z,95182.09
2023-04-08T11:18:52.595Z,95185.44
2023-04-08T11:21:22.376Z,95166.47
2023-04-08T11:23:53.594Z,95170.97
2023-04-08T11:26:22.709Z,95176.63
2023-04-08T11:28:52.148Z,95175.19
2023-04-08T11:31:24.317Z,95167.34
2023-04-08T11:33:55.186Z,95165.78
2023-04-08T11:36:23.135Z,95167.94
2023-04-08T11:38:55.799Z,95165.66
2023-04-08T11:41:24.022Z,95162.53
2023-04-08T11:43:56.549Z,95172.50
2023-04-08T11:46:25.149Z,95154.09
2023-04-08T11:49:01.595Z,95099.47
2023-04-08T11:51:31.087Z,95156.81
2023-04-08T11:54:00.500Z,95140.66
2023-04-08T11:56:30.593Z,95153.41
2023-04-08T11:58:58.707Z,95154.78
2023-04-08T12:01:28.330Z,95146.41
2023-04-08T12:03:58.498Z,95152.78
2023-04-08T12:06:28.289Z,95149.88
2023-04-08T12:08:57.717Z,95143.22
2023-04-08T12:11:27.057Z,95135.44
2023-04-08T12:13:55.106Z,95139.91
2023-04-08T12:16:23.153Z,95139.81
2023-04-08T12:18:51.210Z,95134.50
2023-04-08T12:21:19.145Z,95128.63
2023-04-08T12:23:47.150Z,95136.25
2023-04-08T12:26:15.534Z,95121.38
2023-04-08T12:28:45.179Z,95127.22
2023-04-08T12:31:14.586Z,95129.91
2023-04-08T12:33:42.786Z,95136.03
2023-04-08T12:36:13.523Z,95130.50
2023-04-08T12:38:42.102Z,95131.25
2023-04-08T12:41:10.173Z,95117.19
2023-04-08T12:43:39.133Z,95124.47
2023-04-08T12:46:08.526Z,95126.00
2023-04-08T12:48:36.889Z,95101.25
2023-04-08T12:51:04.883Z,95115.72
2023-04-08T12:53:32.735Z,95114.41
2023-04-08T12:56:00.814Z,95103.75
2023-04-08T12:58:29.379Z,95112.53
2023-04-08T13:00:57.693Z,95114.19
2023-04-08T13:03:29.546Z,95107.28
2023-04-08T13:05:59.122Z,95103.66
2023-04-08T13:08:27.178Z,95111.66
2023-04-08T13:10:55.778Z,95093.28
2023-04-08T13:13:24.266Z,95101.53
2023-04-08T13:15:52.288Z,95097.47
2023-04-08T13:18:20.463Z,95105.59
2023-04-08T13:20:49.867Z,95113.38
2023-04-08T13:23:18.808Z,95107.09
2023-04-08T13:25:46.886Z,95099.69
2023-04-08T13:28:14.826Z,95112.25
2023-04-08T13:30:43.814Z,95116.94
2023-04-08T13:33:12.126Z,95104.69
2023-04-08T13:35:40.858Z,95112.16
2023-04-08T13:38:13.139Z,95123.25
2023-04-08T13:40:41.711Z,95105.69
2023-04-08T13:43:09.854Z,95116.81
2023-04-08T13:45:37.912Z,95117.06
2023-04-08T13:48:06.428Z,95116.16
2023-04-08T13:50:34.421Z,95103.91
2023-04-08T13:53:02.649Z,95112.63
2023-04-08T13:55:31.974Z,95106.03
2023-04-08T13:58:00.280Z,95111.91
2023-04-08T14:00:28.325Z,95118.69
2023-04-08T14:02:56.584Z,95108.59
2023-04-08T14:05:24.572Z,95095.81
2023-04-08T14:07:52.540Z,95111.75
2023-04-08T14:10:20.815Z,95117.19
2023-04-08T14:12:52.634Z,95124.38
2023-04-08T14:15:20.828Z,95120.38
2023-04-08T14:17:49.840Z,95127.31
2023-04-08T14:20:18.311Z,95125.88
2023-04-08T14:22:49.473Z,95132.34
2023-04-08T14:25:17.801Z,95119.16
2023-04-08T14:27:56.722Z,95120.41
2023-04-08T14:30:28.889Z,95116.00
2023-04-08T14:32:59.403Z,95110.53
2023-04-08T14:35:28.237Z,95116.06
2023-04-08T14:37:56.662Z,95099.72
2023-04-08T14:40:25.659Z,95101.94
2023-04-08T14:42:54.171Z,95107.72
2023-04-08T14:45:22.191Z,95110.47
2023-04-08T14:47:51.942Z,95106.91
2023-04-08T14:50:20.181Z,95109.56
2023-04-08T14:52:49.168Z,95096.81
2023-04-08T14:55:17.676Z,95106.50
2023-04-08T14:57:45.550Z,95098.97
2023-04-08T15:00:15.042Z,95092.72
2023-04-08T15:02:44.398Z,95104.75
2023-04-08T15:05:14.269Z,95094.16
2023-04-08T15:07:43.180Z,95107.69
2023-04-08T15:10:11.953Z,95096.16
2023-04-08T15:12:39.879Z,95098.91
2023-04-08T15:15:09.695Z,95063.91
2023-04-08T15:17:38.224Z,95107.41
2023-04-08T15:20:07.719Z,95111.53
2023-04-08T15:22:37.158Z,95104.31
2023-04-08T15:25:06.454Z,95112.44
2023-04-08T15:27:36.344Z,95116.66
2023-04-08T15:30:04.378Z,95116.34
2023-04-08T15:32:32.601Z,95121.28
2023-04-08T15:35:00.743Z,95124.16
2023-04-08T15:37:30.193Z,95114.53
2023-04-08T15:39:59.850Z,95116.34
2023-04-08T15:42:28.089Z,95105.81
2023-04-08T15:44:56.059Z,95104.00
2023-04-08T15:47:24.357Z,95117.56
2023-04-08T15:49:55.908Z,95111.22
2023-04-08T15:52:26.035Z,95114.22
2023-04-08T15:54:54.356Z,95112.31
2023-04-08T15:57:26.881Z,95116.72
2023-04-08T15:59:55.126Z,95118.28
2023-04-08T16:02:23.236Z,95117.91
2023-04-08T16:04:51.786Z,95125.81
2023-04-08T16:07:21.243Z,95117.63
2023-04-08T16:09:49.412Z,95125.44
2023-04-08T16:12:17.645Z,95110.69
2023-04-08T16:14:47.974Z,95126.31
2023-04-08T16:17:16.605Z,95128.69
2023-04-08T16:19:45.001Z,95129.59
2023-04-08T16:22:13.025Z,95135.31
2023-04-08T16:24:41.448Z,95138.59
2023-04-08T16:27:09.812Z,95137.47
2023-04-08T16:29:38.021Z,95140.47
2023-04-08T16:32:07.526Z,95139.00
2023-04-08T16:34:36.385Z,95142.38
2023-04-08T16:37:04.712Z,95148.44
2023-04-08T16:39:32.833Z,95131.59
2023-04-08T16:42:01.268Z,95141.88
2023-04-08T16:44:29.463Z,95155.78
2023-04-08T16:46:57.855Z,95151.22
2023-04-08T16:49:29.213Z,95154.28
2023-04-08T16:51:57.224Z,95155.00
2023-04-08T16:54:25.825Z,95162.78
2023-04-08T16:56:53.759Z,95153.59
2023-04-08T16:59:22.001Z,95158.03
2023-04-08T17:01:50.590Z,95162.25
2023-04-08T17:04:18.559Z,95168.41
2023-04-08T17:06:49.487Z,95161.50
2023-04-08T17:09:18.020Z,95163.09
2023-04-08T17:11:47.311Z,95177.25
2023-04-08T17:14:15.679Z,95178.84
2023-04-08T17:16:43.902Z,95182.63
2023-04-08T17:19:14.210Z,95185.97
2023-04-08T17:21:43.310Z,95199.34
2023-04-08T17:24:14.424Z,95209.41
2023-04-08T17:26:43.393Z,95189.97
2023-04-08T17:29:13.498Z,95209.41
2023-04-08T17:31:43.932Z,95209.06
2023-04-08T17:34:12.780Z,95218.78
2023-04-08T17:36:41.095Z,95224.41
2023-04-08T17:39:09.401Z,95221.59
2023-04-08T17:41:40.720Z,95234.78
2023-04-08T17:44:09.388Z,95248.69
2023-04-08T17:46:37.754Z,95254.09
2023-04-08T17:49:06.645Z,95247.06
2023-04-08T17:51:34.568Z,95256.44
2023-04-08T17:54:02.605Z,95246.06
2023-04-08T17:56:31.345Z,95255.69
2023-04-08T17:59:01.921Z,95265.81
2023-04-08T18:01:30.172Z,95264.19
2023-04-08T18:03:58.343Z,95266.75
2023-04-08T18:06:28.448Z,95258.97
2023-04-08T18:08:57.012Z,95270.94
2023-04-08T18:11:27.332Z,95273.00
2023-04-08T18:13:56.959Z,95271.09
2023-04-08T18:16:27.175Z,95292.44
2023-04-08T18:18:55.558Z,95288.56
2023-04-08T18:21:23.551Z,95273.13
2023-04-08T18:23:51.810Z,95290.00
2023-04-08T18:26:19.972Z,95247.50
2023-04-08T18:28:48.125Z,95293.19
2023-04-08T18:31:16.811Z,95308.03
2023-04-08T18:33:46.953Z,95304.69
2023-04-08T18:36:15.186Z,95318.19
2023-04-08T18:38:44.746Z,95306.81
2023-04-08T18:41:13.385Z,95316.19
2023-04-08T18:43:42.103Z,95299.03
2023-04-08T18:46:10.228Z,95313.59
2023-04-08T18:48:38.172Z,95319.19
2023-04-08T18:51:08.250Z,95312.53
2023-04-08T18:53:36.329Z,95320.03
2023-04-08T18:56:04.916Z,95320.75
2023-04-08T18:58:33.769Z,95323.97
2023-04-08T19:01:02.078Z,95328.72
2023-04-08T19:03:30.101Z,95334.94
2023-04-08T19:05:58.741Z,95345.81
2023-04-08T19:08:28.447Z,95344.03
2023-04-08T19:10:56.921Z,95344.53
2023-04-08T19:13:25.154Z,95355.56
2023-04-08T19:15:53.619Z,95351.78
2023-04-08T19:18:21.675Z,95354.38
2023-04-08T19:20:49.738Z,95358.50
2023-04-08T19:23:18.954Z,95363.47
2023-04-08T19:25:48.709Z,95353.97
2023-04-08T19:28:16.738Z,95362.72
2023-04-08T19:30:45.655Z,95369.34
2023-04-08T19:33:14.280Z,95372.53
2023-04-08T19:35:42.802Z,95300.06
2023-04-08T19:38:12.139Z,95367.41
2023-04-08T19:40:42.126Z,95372.13
2023-04-08T19:43:11.966Z,95375.06
2023-04-08T19:45:39.909Z,95330.38
2023-04-08T19:48:08.193Z,95368.94
2023-04-08T19:50:38.806Z,95301.59
2023-04-08T19:53:07.236Z,95376.00
2023-04-08T19:55:37.606Z,95373.63
2023-04-08T19:58:05.731Z,95375.13
2023-04-08T20:00:37.669Z,95376.00
2023-04-08T20:03:08.324Z,95378.44
2023-04-08T20:05:37.072Z,95368.84
2023-04-08T20:08:05.343Z,95376.34
2023-04-08T20:10:33.318Z,95373.16
2023-04-08T20:13:01.348Z,95376.09
2023-04-08T20:15:29.381Z,95376.94
2023-04-08T20:17:59.100Z,95373.31
2023-04-08T20:20:28.951Z,95363.56
2023-04-08T20:22:57.893Z,95371.13
2023-04-08T20:25:26.107Z,95360.88
2023-04-08T20:27:54.394Z,95368.28
2023-04-08T20:30:22.864Z,95372.16
2023-04-08T20:32:51.716Z,95366.09
2023-04-08T20:35:22.287Z,95358.59
2023-04-08T20:37:50.342Z,95365.59
2023-04-08T20:40:18.632Z,95303.47
2023-04-08T20:42:46.901Z,95368.75
2023-04-08T20:45:14.898Z,95370.81
2023-04-08T20:47:44.666Z,95366.94
2023-04-08T20:50:13.713Z,95360.03
2023-04-08T20:52:43.370Z,95367.75
2023-04-08T20:55:11.577Z,95364.22
2023-04-08T20:57:40.486Z,95365.91
2023-04-08T21:00:10.347Z,95365.41
2023-04-08T21:02:38.837Z,95365.41
2023-04-08T21:05:07.324Z,95370.84
2023-04-08T21:07:36.179Z,95366.22
2023-04-08T21:10:06.470Z,95366.66
2023-04-08T21:12:34.672Z,95360.91
2023-04-08T21:15:02.812Z,95366.38
2023-04-08T21:17:31.295Z,95357.47
2023-04-08T21:19:59.629Z,95367.66
2023-04-08T21:22:28.894Z,95349.22
2023-04-08T21:24:57.972Z,95359.47
2023-04-08T21:27:27.589Z,95358.13
2023-04-08T21:29:56.053Z,95365.59
2023-04-08T21:32:24.610Z,95277.41
2023-04-08T21:34:54.495Z,95367.38
2023-04-08T21:37:23.965Z,95363.44
2023-04-08T21:39:52.618Z,95357.81
2023-04-08T21:42:23.184Z,95362.09
2023-04-08T21:44:52.642Z,95356.97
2023-04-08T21:47:20.957Z,95348.72
2023-04-08T21:49:49.508Z,95354.78
2023-04-08T21:52:18.278Z,95352.41
2023-04-08T21:54:50.894Z,95344.53
2023-04-08T21:57:20.978Z,95294.69
2023-04-08T21:59:50.291Z,95348.63
2023-04-08T22:02:20.863Z,95354.69
2023-04-08T22:04:50.725Z,95350.75
2023-04-08T22:07:18.860Z,95343.94
2023-04-08T22:09:46.946Z,95353.03
2023-04-08T22:12:14.966Z,95357.81
2023-04-08T22:14:42.999Z,95350.91
2023-04-08T22:17:13.047Z,95348.22
2023-04-08T22:19:42.509Z,95337.34
2023-04-08T22:22:10.775Z,95346.00
2023-04-08T22:24:38.879Z,95338.25
2023-04-08T22:27:07.223Z,95342.94
2023-04-08T22:29:35.499Z,95339.63
2023-04-08T22:32:03.689Z,95334.41
2023-04-08T22:34:32.652Z,95334.56
2023-04-08T22:37:02.057Z,95344.66
2023-04-08T22:39:31.036Z,95335.38
2023-04-08T22:41:59.016Z,95340.91
2023-04-08T22:44:27.922Z,95338.03
2023-04-08T22:46:56.063Z,95343.41
2023-04-08T22:49:24.409Z,95343.53
2023-04-08T22:51:52.563Z,95332.47
2023-04-08T22:54:22.781Z,95352.78
2023-04-08T22:56:50.917Z,95355.97
2023-04-08T22:59:18.968Z,95298.84
2023-04-08T23:01:48.917Z,95346.66
2023-04-08T23:04:16.994Z,95351.75
2023-04-08T23:06:45.201Z,95341.84
2023-04-08T23:09:13.279Z,95341.50
2023-04-08T23:11:43.839Z,95322.00
2023-04-08T23:14:14.030Z,95339.84
2023-04-08T23:16:43.267Z,95333.69
2023-04-08T23:19:11.594Z,95323.72
2023-04-08T23:21:47.138Z,95333.66
2023-04-08T23:24:15.358Z,95325.91
2023-04-08T23:26:45.479Z,95331.13
2023-04-08T23:29:13.912Z,95318.03
2023-04-08T23:31:41.936Z,95312.94
2023-04-08T23:34:10.546Z,95321.25
2023-04-08T23:36:39.245Z,95315.22
2023-04-08T23:39:07.716Z,95314.53
2023-04-08T23:41:37.395Z,95314.47
2023-04-08T23:44:08.758Z,95295.53
2023-04-08T23:46:37.064Z,95309.16
2023-04-08T23:49:05.447Z,95300.75
2023-04-08T23:51:34.086Z,95269.78
2023-04-08T23:54:02.060Z,95299.22
2023-04-08T23:56:30.126Z,95303.78
2023-04-08T23:58:58.117Z,95303.72
